createdAt,value
2023-05-17T00:01:47.524Z,23.96
2023-05-17T00:04:14.207Z,23.86
2023-05-17T00:06:41.188Z,23.85
2023-05-17T00:09:07.928Z,23.67
2023-05-17T00:11:34.823Z,23.60
2023-05-17T00:14:01.416Z,23.76
2023-05-17T00:16:28.007Z,23.78
2023-05-17T00:18:54.688Z,23.72
2023-05-17T00:21:21.572Z,23.82
2023-05-17T00:23:48.173Z,23.82
2023-05-17T00:26:14.830Z,23.78
2023-05-17T00:28:42.180Z,23.70
2023-05-17T00:31:08.747Z,23.86
2023-05-17T00:33:35.472Z,23.77
2023-05-17T00:36:02.063Z,23.70
2023-05-17T00:38:28.682Z,23.75
2023-05-17T00:40:55.370Z,23.81
2023-05-17T00:43:22.016Z,23.91
2023-05-17T00:45:50.157Z,23.93
2023-05-17T00:48:17.128Z,23.88
2023-05-17T00:50:44.334Z,23.86
2023-05-17T00:53:16.087Z,23.89
2023-05-17T00:55:44.160Z,24.06
2023-05-17T00:58:14.870Z,24.09
2023-05-17T01:00:42.041Z,24.24
2023-05-17T01:03:08.972Z,24.37
2023-05-17T01:05:36.207Z,24.32
2023-05-17T01:08:02.910Z,24.26
2023-05-17T01:11:01.515Z,24.06
2023-05-17T01:13:38.207Z,23.91
2023-05-17T01:16:16.492Z,23.63
2023-05-17T01:18:55.079Z,23.73
2023-05-17T01:21:40.289Z,23.63
2023-05-17T01:24:24.722Z,23.66
2023-05-17T01:26:54.022Z,23.61
2023-05-17T01:29:26.579Z,23.48
2023-05-17T01:31:56.917Z,23.43
2023-05-17T01:34:27.956Z,23.27
2023-05-17T01:36:54.786Z,23.15
2023-05-17T01:39:22.543Z,23.24
2023-05-17T01:42:07.880Z,23.44
2023-05-17T01:44:46.479Z,23.37
2023-05-17T01:47:19.714Z,23.41
2023-05-17T01:49:48.730Z,23.76
2023-05-17T01:52:29.817Z,23.94
2023-05-17T01:55:07.567Z,23.81
2023-05-17T01:57:38.993Z,23.58
2023-05-17T02:00:09.156Z,23.72
2023-05-17T02:02:41.685Z,23.65
2023-05-17T02:05:08.527Z,23.74
2023-05-17T02:07:35.360Z,23.94
2023-05-17T02:10:02.293Z,23.92
2023-05-17T02:12:28.885Z,23.57
2023-05-17T02:14:55.828Z,23.38
2023-05-17T02:17:22.850Z,23.34
2023-05-17T02:19:49.546Z,23.18
2023-05-17T02:22:16.184Z,23.11
2023-05-17T02:24:42.736Z,23.09
2023-05-17T02:27:09.480Z,23.12
2023-05-17T02:29:36.112Z,23.26
2023-05-17T02:32:02.801Z,23.33
2023-05-17T02:34:29.430Z,23.57
2023-05-17T02:36:56.048Z,23.71
2023-05-17T02:39:22.570Z,23.79
2023-05-17T02:41:49.197Z,23.52
2023-05-17T02:44:16.613Z,23.56
2023-05-17T02:46:43.260Z,23.52
2023-05-17T02:49:12.704Z,23.41
2023-05-17T02:51:39.355Z,23.39
2023-05-17T02:54:05.966Z,23.30
2023-05-17T02:56:32.958Z,23.20
2023-05-17T02:59:01.309Z,23.06
2023-05-17T03:01:28.364Z,23.14
2023-05-17T03:03:56.071Z,23.20
2023-05-17T03:06:22.882Z,23.12
2023-05-17T03:08:50.854Z,23.38
2023-05-17T03:11:17.463Z,23.43
2023-05-17T03:13:46.301Z,23.24
2023-05-17T03:16:13.038Z,22.96
2023-05-17T03:18:39.756Z,22.96
2023-05-17T03:21:07.163Z,23.01
2023-05-17T03:23:33.853Z,23.06
2023-05-17T03:26:02.537Z,23.16
2023-05-17T03:28:33.478Z,23.25
2023-05-17T03:31:00.624Z,23.28
2023-05-17T03:33:30.660Z,23.11
2023-05-17T03:35:57.522Z,23.34
2023-05-17T03:38:24.222Z,23.28
2023-05-17T03:40:52.051Z,22.95
2023-05-17T03:43:18.798Z,22.86
2023-05-17T03:45:46.415Z,22.91
2023-05-17T03:48:12.984Z,22.95
2023-05-17T03:50:41.012Z,22.88
2023-05-17T03:53:09.670Z,22.76
2023-05-17T03:55:36.406Z,22.73
2023-05-17T03:58:03.095Z,22.61
2023-05-17T04:00:29.886Z,22.73
2023-05-17T04:03:01.288Z,23.00
2023-05-17T04:05:28.132Z,23.00
2023-05-17T04:07:55.320Z,22.95
2023-05-17T04:10:22.509Z,23.10
2023-05-17T04:12:49.815Z,23.16
2023-05-17T04:15:16.498Z,23.03
2023-05-17T04:17:43.745Z,22.94
2023-05-17T04:20:11.120Z,23.15
2023-05-17T04:22:39.133Z,23.36
2023-05-17T04:25:06.500Z,23.34
2023-05-17T04:27:33.442Z,23.37
2023-05-17T04:30:00.519Z,23.40
2023-05-17T04:32:27.911Z,23.34
2023-05-17T04:34:56.199Z,23.31
2023-05-17T04:37:23.473Z,23.41
2023-05-17T04:39:53.890Z,23.26
2023-05-17T04:42:21.349Z,23.29
2023-05-17T04:44:53.434Z,22.99
2023-05-17T04:47:20.007Z,23.17
2023-05-17T04:49:46.591Z,23.04
2023-05-17T04:52:13.153Z,23.06
2023-05-17T04:54:40.576Z,23.07
2023-05-17T04:57:07.129Z,22.87
2023-05-17T05:00:07.261Z,23.00
2023-05-17T05:02:34.872Z,23.22
2023-05-17T05:05:04.805Z,23.40
2023-05-17T05:07:31.817Z,23.27
2023-05-17T05:09:58.431Z,23.36
2023-05-17T05:12:25.405Z,23.33
2023-05-17T05:14:51.945Z,23.59
2023-05-17T05:17:18.852Z,23.67
2023-05-17T05:19:46.605Z,23.65
2023-05-17T05:22:13.314Z,23.70
2023-05-17T05:24:41.097Z,23.57
2023-05-17T05:27:07.741Z,23.38
2023-05-17T05:29:35.691Z,23.37
2023-05-17T05:32:02.765Z,23.46
2023-05-17T05:34:31.530Z,23.80
2023-05-17T05:36:58.200Z,24.17
2023-05-17T05:39:24.891Z,24.40
2023-05-17T05:41:51.997Z,24.60
2023-05-17T05:44:19.337Z,23.99
2023-05-17T05:46:46.496Z,24.02
2023-05-17T05:49:13.965Z,24.48
2023-05-17T05:51:40.603Z,24.77
2023-05-17T05:54:07.252Z,24.55
2023-05-17T05:56:33.963Z,24.18
2023-05-17T05:59:00.509Z,24.11
2023-05-17T06:01:28.839Z,24.42
2023-05-17T06:03:55.768Z,24.40
2023-05-17T06:06:22.448Z,24.70
2023-05-17T06:08:49.105Z,24.82
2023-05-17T06:11:15.703Z,24.81
2023-05-17T06:13:42.289Z,24.90
2023-05-17T06:16:08.917Z,24.64
2023-05-17T06:18:35.759Z,24.44
2023-05-17T06:21:02.431Z,24.04
2023-05-17T06:23:28.998Z,24.35
2023-05-17T06:25:55.768Z,24.33
2023-05-17T06:28:22.392Z,24.67
2023-05-17T06:30:49.011Z,24.90
2023-05-17T06:33:15.738Z,24.66
2023-05-17T06:35:54.963Z,24.59
2023-05-17T06:38:23.582Z,24.26
2023-05-17T06:40:54.208Z,24.28
2023-05-17T06:43:21.354Z,24.35
2023-05-17T06:45:47.945Z,24.47
2023-05-17T06:48:15.528Z,24.50
2023-05-17T06:50:42.269Z,24.50
2023-05-17T06:53:09.126Z,24.39
2023-05-17T06:55:35.964Z,25.23
2023-05-17T06:58:02.617Z,25.44
2023-05-17T07:00:32.455Z,25.10
2023-05-17T07:03:00.220Z,25.08
2023-05-17T07:05:29.035Z,25.15
2023-05-17T07:07:56.630Z,24.83
2023-05-17T07:10:23.177Z,25.13
2023-05-17T07:12:49.827Z,25.01
2023-05-17T07:15:18.435Z,25.44
2023-05-17T07:17:45.066Z,25.99
2023-05-17T07:20:12.737Z,25.95
2023-05-17T07:22:39.438Z,25.52
2023-05-17T07:25:06.763Z,25.85
2023-05-17T07:27:33.363Z,25.91
2023-05-17T07:30:01.064Z,25.95
2023-05-17T07:32:27.690Z,26.07
2023-05-17T07:34:54.527Z,26.21
2023-05-17T07:37:21.147Z,26.09
2023-05-17T07:39:47.834Z,26.55
2023-05-17T07:42:14.716Z,26.26
2023-05-17T07:44:42.582Z,25.40
2023-05-17T07:47:09.243Z,26.23
2023-05-17T07:49:35.873Z,25.71
2023-05-17T07:52:03.027Z,25.29
2023-05-17T07:54:30.900Z,25.32
2023-05-17T07:56:57.630Z,25.01
2023-05-17T07:59:24.634Z,24.39
2023-05-17T08:01:52.144Z,24.40
2023-05-17T08:04:21.734Z,24.39
2023-05-17T08:06:49.944Z,24.60
2023-05-17T08:09:16.862Z,24.64
2023-05-17T08:11:46.390Z,25.26
2023-05-17T08:14:16.668Z,25.59
2023-05-17T08:16:45.124Z,25.41
2023-05-17T08:19:13.371Z,25.23
2023-05-17T08:21:41.848Z,24.79
2023-05-17T08:24:08.962Z,25.06
2023-05-17T08:26:35.869Z,24.89
2023-05-17T08:33:34.927Z,25.16
2023-05-17T08:36:02.873Z,24.75
2023-05-17T08:38:29.413Z,24.51
2023-05-17T08:40:56.809Z,25.51
2023-05-17T08:43:26.020Z,25.08
2023-05-17T08:45:57.549Z,25.60
2023-05-17T08:48:31.070Z,25.07
2023-05-17T08:50:58.041Z,24.63
2023-05-17T08:53:25.524Z,24.78
2023-05-17T08:55:58.874Z,25.37
2023-05-17T08:58:32.584Z,25.76
2023-05-17T09:01:07.363Z,25.17
2023-05-17T09:03:35.650Z,25.34
2023-05-17T09:06:03.551Z,25.10
2023-05-17T09:08:32.849Z,24.39
2023-05-17T09:10:59.528Z,24.94
2023-05-17T09:13:26.727Z,24.53
2023-05-17T09:15:54.390Z,24.20
2023-05-17T09:18:32.654Z,24.63
2023-05-17T09:21:06.248Z,24.74
2023-05-17T09:23:33.849Z,25.40
2023-05-17T09:26:10.434Z,25.30
2023-05-17T09:28:39.490Z,25.17
2023-05-17T09:31:10.591Z,24.78
2023-05-17T09:33:48.138Z,24.56
2023-05-17T09:36:22.455Z,25.48
2023-05-17T09:38:58.589Z,25.36
2023-05-17T09:41:30.659Z,25.19
2023-05-17T09:44:02.250Z,25.11
2023-05-17T09:46:34.782Z,24.90
2023-05-17T09:49:03.275Z,25.04
2023-05-17T09:51:37.147Z,24.66
2023-05-17T09:54:03.958Z,24.92
2023-05-17T09:56:31.243Z,25.13
2023-05-17T09:59:01.155Z,25.60
2023-05-17T10:01:29.173Z,25.61
2023-05-17T10:03:59.172Z,25.33
2023-05-17T10:06:39.018Z,24.95
2023-05-17T10:09:14.303Z,24.35
2023-05-17T10:11:44.193Z,25.12
2023-05-17T10:14:22.788Z,25.05
2023-05-17T10:16:51.675Z,25.33
2023-05-17T10:19:20.833Z,25.40
2023-05-17T10:21:48.509Z,25.43
2023-05-17T10:24:16.383Z,25.79
2023-05-17T10:26:43.484Z,25.24
2023-05-17T10:29:10.810Z,24.59
2023-05-17T10:31:37.592Z,25.06
2023-05-17T10:34:06.600Z,25.19
2023-05-17T10:36:34.128Z,25.62
2023-05-17T10:39:01.888Z,25.56
2023-05-17T10:41:33.671Z,25.48
2023-05-17T10:44:03.140Z,25.83
2023-05-17T10:46:30.777Z,25.70
2023-05-17T10:49:01.438Z,25.60
2023-05-17T10:51:39.338Z,25.85
2023-05-17T10:54:18.399Z,25.97
2023-05-17T10:56:52.831Z,25.89
2023-05-17T10:59:28.104Z,26.35
2023-05-17T11:02:10.189Z,25.93
2023-05-17T11:04:39.835Z,25.99
2023-05-17T11:07:20.139Z,26.04
2023-05-17T11:09:50.610Z,26.45
2023-05-17T11:12:37.334Z,25.79
2023-05-17T11:15:08.453Z,26.10
2023-05-17T11:17:57.447Z,25.96
2023-05-17T11:20:24.187Z,25.94
2023-05-17T11:22:58.625Z,26.08
2023-05-17T11:25:29.862Z,25.55
2023-05-17T11:27:58.481Z,25.45
2023-05-17T11:30:26.751Z,25.54
2023-05-17T11:32:57.768Z,25.73
2023-05-17T11:35:28.131Z,25.61
2023-05-17T11:38:13.926Z,25.68
2023-05-17T11:40:41.129Z,25.93
2023-05-17T11:43:13.995Z,26.28
2023-05-17T11:45:46.374Z,25.93
2023-05-17T11:48:13.513Z,26.58
2023-05-17T11:50:42.422Z,26.99
2023-05-17T11:53:10.310Z,27.07
2023-05-17T11:55:41.949Z,26.55
2023-05-17T11:58:10.521Z,26.54
2023-05-17T12:00:41.934Z,26.06
2023-05-17T12:03:35.137Z,26.10
2023-05-17T12:06:09.413Z,26.65
2023-05-17T12:08:38.626Z,26.87
2023-05-17T12:11:06.710Z,27.11
2023-05-17T12:13:35.133Z,26.54
2023-05-17T12:16:05.880Z,27.00
2023-05-17T12:18:40.020Z,27.04
2023-05-17T12:21:08.978Z,26.48
2023-05-17T12:23:41.142Z,26.20
2023-05-17T12:26:12.721Z,26.80
2023-05-17T12:28:41.630Z,27.01
2023-05-17T12:31:12.002Z,26.50
2023-05-17T12:33:41.565Z,26.75
2023-05-17T12:36:11.049Z,26.36
2023-05-17T12:38:40.651Z,26.73
2023-05-17T12:41:10.511Z,26.03
2023-05-17T12:43:38.956Z,26.19
2023-05-17T12:46:07.749Z,26.26
2023-05-17T12:48:40.420Z,26.67
2023-05-17T12:51:12.297Z,26.88
2023-05-17T12:54:06.127Z,26.79
2023-05-17T12:56:32.885Z,27.08
2023-05-17T12:59:12.078Z,26.82
2023-05-17T13:01:49.838Z,27.07
2023-05-17T13:04:18.000Z,27.60
2023-05-17T13:06:54.603Z,27.05
2023-05-17T13:09:23.897Z,26.98
2023-05-17T13:11:51.056Z,26.91
2023-05-17T13:14:43.462Z,26.71
2023-05-17T13:17:15.395Z,26.90
2023-05-17T13:19:42.628Z,27.11
2023-05-17T13:22:10.077Z,26.91
2023-05-17T13:24:38.294Z,26.74
2023-05-17T13:27:06.023Z,26.99
2023-05-17T13:29:40.188Z,27.14
2023-05-17T13:32:08.688Z,27.18
2023-05-17T13:34:35.553Z,27.05
2023-05-17T13:37:02.241Z,27.09
2023-05-17T13:39:28.996Z,26.85
2023-05-17T13:41:55.682Z,27.42
2023-05-17T13:44:22.350Z,26.87
2023-05-17T13:46:49.023Z,26.79
2023-05-17T13:49:15.715Z,27.09
2023-05-17T13:51:42.857Z,27.29
2023-05-17T13:54:10.589Z,26.95
2023-05-17T13:56:37.581Z,26.88
2023-05-17T13:59:04.240Z,27.18
2023-05-17T14:01:30.935Z,27.29
2023-05-17T14:03:57.595Z,27.55
2023-05-17T14:06:24.510Z,27.26
2023-05-17T14:08:53.067Z,27.07
2023-05-17T14:11:19.850Z,26.95
2023-05-17T14:13:46.418Z,27.34
2023-05-17T14:16:14.277Z,26.62
2023-05-17T14:18:41.139Z,26.75
2023-05-17T14:21:08.211Z,27.17
2023-05-17T14:23:35.469Z,27.22
2023-05-17T14:26:05.006Z,27.05
2023-05-17T14:28:31.840Z,27.24
2023-05-17T14:30:58.545Z,26.68
2023-05-17T14:33:26.841Z,26.88
2023-05-17T14:35:53.673Z,26.68
2023-05-17T14:38:22.278Z,26.31
2023-05-17T14:40:49.022Z,26.58
2023-05-17T14:43:16.267Z,26.73
2023-05-17T14:45:42.867Z,26.68
2023-05-17T14:48:09.620Z,26.18
2023-05-17T14:50:36.368Z,26.71
2023-05-17T14:53:03.045Z,26.75
2023-05-17T14:55:30.101Z,26.87
2023-05-17T14:57:57.853Z,26.98
2023-05-17T15:00:25.290Z,26.98
2023-05-17T15:02:51.843Z,26.80
2023-05-17T15:05:18.613Z,26.76
2023-05-17T15:07:45.228Z,26.64
2023-05-17T15:10:12.963Z,26.42
2023-05-17T15:12:39.978Z,25.98
2023-05-17T15:15:07.154Z,26.43
2023-05-17T15:17:33.745Z,26.73
2023-05-17T15:20:00.532Z,26.31
2023-05-17T15:22:27.153Z,26.18
2023-05-17T15:24:54.298Z,26.44
2023-05-17T15:27:20.974Z,26.85
2023-05-17T15:29:47.566Z,26.79
2023-05-17T15:32:14.199Z,26.90
2023-05-17T15:34:41.297Z,26.69
2023-05-17T15:37:07.843Z,26.88
2023-05-17T15:39:34.546Z,27.15
2023-05-17T15:42:01.414Z,26.80
2023-05-17T15:44:27.970Z,26.98
2023-05-17T15:46:54.527Z,27.59
2023-05-17T15:49:21.235Z,27.93
2023-05-17T15:51:47.976Z,27.58
2023-05-17T15:54:14.939Z,27.23
2023-05-17T15:56:41.934Z,27.77
2023-05-17T15:59:08.666Z,28.03
2023-05-17T16:01:35.517Z,28.46
2023-05-17T16:04:02.292Z,27.84
2023-05-17T16:06:34.710Z,27.62
2023-05-17T16:09:02.932Z,27.59
2023-05-17T16:11:29.504Z,27.98
2023-05-17T16:13:57.106Z,27.98
2023-05-17T16:16:23.845Z,27.92
2023-05-17T16:18:50.703Z,28.30
2023-05-17T16:21:17.334Z,28.19
2023-05-17T16:23:43.953Z,27.93
2023-05-17T16:26:10.730Z,28.06
2023-05-17T16:28:37.377Z,27.81
2023-05-17T16:31:05.526Z,28.22
2023-05-17T16:33:32.261Z,27.58
2023-05-17T16:35:59.254Z,28.09
2023-05-17T16:38:26.188Z,28.15
2023-05-17T16:40:52.770Z,27.68
2023-05-17T16:43:19.402Z,27.22
2023-05-17T16:45:46.324Z,27.26
2023-05-17T16:48:14.405Z,27.05
2023-05-17T16:50:41.982Z,27.11
2023-05-17T16:53:08.629Z,26.54
2023-05-17T16:55:36.223Z,26.87
2023-05-17T16:58:03.139Z,26.71
2023-05-17T17:00:29.991Z,26.32
2023-05-17T17:02:58.890Z,26.54
2023-05-17T17:05:26.507Z,26.50
2023-05-17T17:07:53.618Z,26.26
2023-05-17T17:10:20.934Z,26.91
2023-05-17T17:12:49.682Z,27.24
2023-05-17T17:15:16.675Z,26.45
2023-05-17T17:17:44.937Z,26.91
2023-05-17T17:20:12.235Z,26.80
2023-05-17T17:22:39.086Z,27.10
2023-05-17T17:25:07.385Z,27.17
2023-05-17T17:27:34.761Z,27.14
2023-05-17T17:30:01.938Z,26.89
2023-05-17T17:32:28.657Z,26.92
2023-05-17T17:34:55.284Z,26.92
2023-05-17T17:37:21.900Z,26.86
2023-05-17T17:39:48.431Z,26.62
2023-05-17T17:42:15.014Z,26.84
2023-05-17T17:44:41.558Z,26.59
2023-05-17T17:47:08.194Z,26.51
2023-05-17T17:49:35.984Z,26.68
2023-05-17T17:52:03.450Z,26.68
2023-05-17T17:54:30.050Z,26.71
2023-05-17T17:56:56.642Z,26.49
2023-05-17T17:59:23.241Z,26.61
2023-05-17T18:01:49.989Z,26.61
2023-05-17T18:04:16.721Z,26.16
2023-05-17T18:06:45.621Z,26.22
2023-05-17T18:09:12.178Z,26.28
2023-05-17T18:11:38.791Z,26.42
2023-05-17T18:14:06.148Z,26.14
2023-05-17T18:16:33.006Z,25.89
2023-05-17T18:19:00.680Z,26.19
2023-05-17T18:21:29.220Z,26.30
2023-05-17T18:23:55.879Z,26.30
2023-05-17T18:26:23.153Z,26.50
2023-05-17T18:28:50.252Z,26.50
2023-05-17T18:31:18.264Z,26.69
2023-05-17T18:33:45.306Z,26.41
2023-05-17T18:36:12.002Z,26.36
2023-05-17T18:38:38.569Z,26.36
2023-05-17T18:41:05.267Z,26.11
2023-05-17T18:43:31.889Z,26.04
2023-05-17T18:45:58.483Z,26.05
2023-05-17T18:48:25.176Z,25.98
2023-05-17T18:50:51.908Z,26.07
2023-05-17T18:53:18.506Z,25.83
2023-05-17T18:55:45.196Z,25.77
2023-05-17T18:58:11.714Z,25.69
2023-05-17T19:00:38.347Z,25.80
2023-05-17T19:03:05.049Z,25.78
2023-05-17T19:05:31.707Z,25.75
2023-05-17T19:07:58.363Z,25.63
2023-05-17T19:10:24.959Z,25.57
2023-05-17T19:12:51.598Z,25.45
2023-05-17T19:15:19.513Z,25.20
2023-05-17T19:17:46.124Z,25.04
2023-05-17T19:20:13.050Z,25.12
2023-05-17T19:22:39.633Z,25.05
2023-05-17T19:25:06.809Z,24.64
2023-05-17T19:27:33.409Z,24.54
2023-05-17T19:29:59.988Z,24.26
2023-05-17T19:32:26.909Z,24.30
2023-05-17T19:34:54.764Z,24.28
2023-05-17T19:37:21.348Z,24.30
2023-05-17T19:39:47.891Z,24.31
2023-05-17T19:42:14.472Z,24.09
2023-05-17T19:44:41.113Z,24.02
2023-05-17T19:47:07.671Z,23.93
2023-05-17T19:49:34.245Z,23.78
2023-05-17T19:52:01.133Z,23.39
2023-05-17T19:54:29.184Z,23.33
2023-05-17T19:56:56.967Z,23.12
2023-05-17T19:59:23.769Z,23.32
2023-05-17T20:01:50.827Z,23.43
2023-05-17T20:04:17.538Z,23.48
2023-05-17T20:06:44.494Z,23.39
2023-05-17T20:09:11.164Z,23.12
2023-05-17T20:11:37.991Z,23.14
2023-05-17T20:14:04.662Z,23.42
2023-05-17T20:16:31.383Z,23.21
2023-05-17T20:18:58.331Z,23.14
2023-05-17T20:21:26.164Z,23.13
2023-05-17T20:24:00.457Z,23.11
2023-05-17T20:26:31.334Z,23.26
2023-05-17T20:28:58.888Z,23.35
2023-05-17T20:31:25.641Z,23.25
2023-05-17T20:33:52.862Z,23.51
2023-05-17T20:36:19.476Z,23.38
2023-05-17T20:38:46.364Z,23.32
2023-05-17T20:41:14.678Z,23.43
2023-05-17T20:43:46.598Z,23.44
2023-05-17T20:46:13.581Z,23.57
2023-05-17T20:48:43.089Z,23.41
2023-05-17T20:51:10.239Z,23.15
2023-05-17T20:53:37.335Z,22.88
2023-05-17T20:56:04.447Z,22.96
2023-05-17T20:58:31.375Z,22.81
2023-05-17T21:00:58.613Z,22.83
2023-05-17T21:03:28.140Z,22.80
2023-05-17T21:05:55.604Z,22.50
2023-05-17T21:08:22.691Z,22.37
2023-05-17T21:10:49.865Z,22.36
2023-05-17T21:13:16.534Z,22.41
2023-05-17T21:15:43.525Z,22.41
2023-05-17T21:18:11.181Z,22.41
2023-05-17T21:20:38.589Z,22.60
2023-05-17T21:23:05.230Z,22.77
2023-05-17T21:25:32.160Z,22.75
2023-05-17T21:27:58.849Z,22.71
2023-05-17T21:30:25.798Z,22.47
2023-05-17T21:32:52.363Z,22.38
2023-05-17T21:35:18.974Z,22.37
2023-05-17T21:37:45.547Z,22.39
2023-05-17T21:40:12.274Z,22.28
2023-05-17T21:42:38.903Z,22.30
2023-05-17T21:45:06.190Z,22.38
2023-05-17T21:47:32.860Z,22.48
2023-05-17T21:49:59.515Z,22.28
2023-05-17T21:52:26.137Z,22.08
2023-05-17T21:54:52.764Z,22.08
2023-05-17T21:57:20.926Z,22.11
2023-05-17T21:59:48.971Z,22.12
2023-05-17T22:02:15.732Z,22.10
2023-05-17T22:04:42.433Z,22.09
2023-05-17T22:07:10.862Z,22.09
2023-05-17T22:09:38.042Z,22.22
2023-05-17T22:12:08.256Z,22.29
2023-05-17T22:14:36.271Z,22.40
2023-05-17T22:17:08.265Z,22.42
2023-05-17T22:19:40.535Z,22.30
2023-05-17T22:22:08.460Z,22.28
2023-05-17T22:24:35.383Z,22.53
2023-05-17T22:27:02.594Z,22.28
2023-05-17T22:29:29.346Z,22.22
2023-05-17T22:31:56.053Z,21.98
2023-05-17T22:34:22.895Z,22.16
2023-05-17T22:36:49.457Z,22.23
2023-05-17T22:39:16.080Z,22.29
2023-05-17T22:41:42.690Z,22.15
2023-05-17T22:44:09.307Z,22.19
2023-05-17T22:46:37.856Z,22.21
2023-05-17T22:49:04.452Z,21.97
2023-05-17T22:51:34.973Z,22.04
2023-05-17T22:54:03.213Z,21.91
2023-05-17T22:56:30.094Z,21.77
2023-05-17T22:58:56.756Z,21.63
2023-05-17T23:01:23.384Z,21.56
2023-05-17T23:03:50.085Z,21.60
2023-05-17T23:06:16.662Z,22.14
2023-05-17T23:08:43.281Z,22.10
2023-05-17T23:11:09.837Z,21.95
2023-05-17T23:13:36.403Z,21.87
2023-05-17T23:16:04.125Z,21.60
2023-05-17T23:18:30.993Z,21.66
2023-05-17T23:20:58.874Z,21.39
2023-05-17T23:23:25.936Z,21.49
2023-05-17T23:25:52.518Z,21.64
2023-05-17T23:28:19.302Z,21.37
2023-05-17T23:30:48.497Z,21.36
2023-05-17T23:33:15.438Z,21.16
2023-05-17T23:35:42.032Z,21.19
2023-05-17T23:38:08.670Z,21.25
2023-05-17T23:40:36.951Z,21.39
2023-05-17T23:43:04.205Z,21.42
2023-05-17T23:45:30.989Z,21.43
2023-05-17T23:48:01.008Z,21.52
2023-05-17T23:50:27.746Z,21.36
2023-05-17T23:52:54.355Z,21.30
2023-05-17T23:55:22.511Z,21.68
2023-05-17T23:57:49.360Z,21.87
